sensor_id;sensor_type;location;lat;lon;timestamp;P1;P2;P0
33948;PMS7003;20229;49.856;19.030;2022-11-03T00:03:26;10;5;1
33948;PMS7003;20229;49.856;19.030;2022-11-03T00:08:36;5;4;1
33948;PMS7003;20229;49.856;19.030;2022-11-03T00:13:52;8;5;3
33948;PMS7003;20229;49.856;19.030;2022-11-03T00:18:55;18;13;9
33948;PMS7003;20229;49.856;19.030;2022-11-03T00:24:17;36;35;32
33948;PMS7003;20229;49.856;19.030;2022-11-03T00:29:21;31;27;23
33948;PMS7003;20229;49.856;19.030;2022-11-03T00:34:43;27;25;20
33948;PMS7003;20229;49.856;19.030;2022-11-03T00:39:47;35;30;24
33948;PMS7003;20229;49.856;19.030;2022-11-03T00:45:09;43;39;34
33948;PMS7003;20229;49.856;19.030;2022-11-03T00:50:12;49;41;37
33948;PMS7003;20229;49.856;19.030;2022-11-03T00:55:35;49;44;40
33948;PMS7003;20229;49.856;19.030;2022-11-03T01:00:38;55;50;44
33948;PMS7003;20229;49.856;19.030;2022-11-03T01:06:00;47;40;36
33948;PMS7003;20229;49.856;19.030;2022-11-03T01:11:20;47;39;35
33948;PMS7003;20229;49.856;19.030;2022-11-03T01:16:37;48;41;36
33948;PMS7003;20229;49.856;19.030;2022-11-03T01:21:42;50;41;38
33948;PMS7003;20229;49.856;19.030;2022-11-03T01:26:51;51;45;41
33948;PMS7003;20229;49.856;19.030;2022-11-03T01:31:55;37;35;32
33948;PMS7003;20229;49.856;19.030;2022-11-03T01:37:17;12;10;9
33948;PMS7003;20229;49.856;19.030;2022-11-03T01:42:21;12;11;8
33948;PMS7003;20229;49.856;19.030;2022-11-03T01:47:43;14;13;10
33948;PMS7003;20229;49.856;19.030;2022-11-03T01:52:52;37;31;24
33948;PMS7003;20229;49.856;19.030;2022-11-03T02:03:21;26;25;19
33948;PMS7003;20229;49.856;19.030;2022-11-03T02:08:39;21;18;15
33948;PMS7003;20229;49.856;19.030;2022-11-03T02:13:48;12;9;8
33948;PMS7003;20229;49.856;19.030;2022-11-03T02:19:00;28;26;21
33948;PMS7003;20229;49.856;19.030;2022-11-03T02:29:26;44;38;34
33948;PMS7003;20229;49.856;19.030;2022-11-03T02:34:39;38;35;31
33948;PMS7003;20229;49.856;19.030;2022-11-03T02:45:06;7;7;5
33948;PMS7003;20229;49.856;19.030;2022-11-03T02:50:21;8;6;4
33948;PMS7003;20229;49.856;19.030;2022-11-03T03:00:50;11;9;6
33948;PMS7003;20229;49.856;19.030;2022-11-03T03:06:02;9;7;4
33948;PMS7003;20229;49.856;19.030;2022-11-03T03:11:11;5;2;0
33948;PMS7003;20229;49.856;19.030;2022-11-03T03:16:16;3;3;1
33948;PMS7003;20229;49.856;19.030;2022-11-03T03:21:38;11;7;6
33948;PMS7003;20229;49.856;19.030;2022-11-03T03:26:46;10;9;7
33948;PMS7003;20229;49.856;19.030;2022-11-03T03:32:02;14;12;10
33948;PMS7003;20229;49.856;19.030;2022-11-03T03:37:10;15;13;10
33948;PMS7003;20229;49.856;19.030;2022-11-03T03:42:27;13;11;9
33948;PMS7003;20229;49.856;19.030;2022-11-03T03:47:33;15;13;9
33948;PMS7003;20229;49.856;19.030;2022-11-03T03:52:54;11;9;7
33948;PMS7003;20229;49.856;19.030;2022-11-03T03:58:02;11;9;6
33948;PMS7003;20229;49.856;19.030;2022-11-03T04:03:20;13;11;8
33948;PMS7003;20229;49.856;19.030;2022-11-03T04:08:25;15;14;10
33948;PMS7003;20229;49.856;19.030;2022-11-03T04:13:44;14;12;10
33948;PMS7003;20229;49.856;19.030;2022-11-03T04:19:00;18;16;11
33948;PMS7003;20229;49.856;19.030;2022-11-03T04:24:15;17;16;11
33948;PMS7003;20229;49.856;19.030;2022-11-03T04:29:19;20;15;11
33948;PMS7003;20229;49.856;19.030;2022-11-03T04:34:35;23;18;12
33948;PMS7003;20229;49.856;19.030;2022-11-03T04:39:39;20;15;11
33948;PMS7003;20229;49.856;19.030;2022-11-03T04:45:01;18;17;12
33948;PMS7003;20229;49.856;19.030;2022-11-03T04:50:16;18;15;12
33948;PMS7003;20229;49.856;19.030;2022-11-03T04:55:27;15;13;10
33948;PMS7003;20229;49.856;19.030;2022-11-03T05:00:30;17;15;9
33948;PMS7003;20229;49.856;19.030;2022-11-03T05:05:52;15;14;10
33948;PMS7003;20229;49.856;19.030;2022-11-03T05:10:56;16;13;9
33948;PMS7003;20229;49.856;19.030;2022-11-03T05:16:18;9;5;3
33948;PMS7003;20229;49.856;19.030;2022-11-03T05:21:22;12;9;4
33948;PMS7003;20229;49.856;19.030;2022-11-03T05:26:44;13;10;7
33948;PMS7003;20229;49.856;19.030;2022-11-03T05:31:48;16;14;10
33948;PMS7003;20229;49.856;19.030;2022-11-03T05:37:18;19;18;14
33948;PMS7003;20229;49.856;19.030;2022-11-03T05:47:37;17;16;11
33948;PMS7003;20229;49.856;19.030;2022-11-03T05:52:42;14;13;11
33948;PMS7003;20229;49.856;19.030;2022-11-03T05:58:04;13;12;9
33948;PMS7003;20229;49.856;19.030;2022-11-03T06:03:23;13;13;9
33948;PMS7003;20229;49.856;19.030;2022-11-03T06:08:37;21;17;12
33948;PMS7003;20229;49.856;19.030;2022-11-03T06:13:37;21;19;13
33948;PMS7003;20229;49.856;19.030;2022-11-03T06:18:51;22;19;15
33948;PMS7003;20229;49.856;19.030;2022-11-03T06:23:55;11;8;4
33948;PMS7003;20229;49.856;19.030;2022-11-03T06:29:18;12;11;7
33948;PMS7003;20229;49.856;19.030;2022-11-03T06:39:43;21;17;12
33948;PMS7003;20229;49.856;19.030;2022-11-03T06:44:47;24;19;14
33948;PMS7003;20229;49.856;19.030;2022-11-03T06:55:27;21;17;11
33948;PMS7003;20229;49.856;19.030;2022-11-03T07:00:35;20;17;13
33948;PMS7003;20229;49.856;19.030;2022-11-03T07:06:25;23;19;14
33948;PMS7003;20229;49.856;19.030;2022-11-03T07:11:51;30;25;18
33948;PMS7003;20229;49.856;19.030;2022-11-03T07:22:20;67;63;57
33948;PMS7003;20229;49.856;19.030;2022-11-03T07:27:26;36;32;24
33948;PMS7003;20229;49.856;19.030;2022-11-03T07:32:45;52;43;38
33948;PMS7003;20229;49.856;19.030;2022-11-03T07:37:49;34;29;21
33948;PMS7003;20229;49.856;19.030;2022-11-03T07:43:12;17;17;9
33948;PMS7003;20229;49.856;19.030;2022-11-03T07:53:41;103;95;88
33948;PMS7003;20229;49.856;19.030;2022-11-03T07:58:57;164;158;152
33948;PMS7003;20229;49.856;19.030;2022-11-03T08:09:18;122;117;116
33948;PMS7003;20229;49.856;19.030;2022-11-03T08:14:31;53;45;36
33948;PMS7003;20229;49.856;19.030;2022-11-03T08:19:35;55;46;37
33948;PMS7003;20229;49.856;19.030;2022-11-03T08:24:57;44;37;29
33948;PMS7003;20229;49.856;19.030;2022-11-03T08:30:01;41;35;27
33948;PMS7003;20229;49.856;19.030;2022-11-03T08:35:23;56;47;40
33948;PMS7003;20229;49.856;19.030;2022-11-03T08:40:26;49;40;32
33948;PMS7003;20229;49.856;19.030;2022-11-03T08:45:49;46;38;31
33948;PMS7003;20229;49.856;19.030;2022-11-03T08:50:56;49;41;32
33948;PMS7003;20229;49.856;19.030;2022-11-03T08:56:14;41;35;29
33948;PMS7003;20229;49.856;19.030;2022-11-03T09:01:18;48;39;32
33948;PMS7003;20229;49.856;19.030;2022-11-03T09:06:40;51;42;33
33948;PMS7003;20229;49.856;19.030;2022-11-03T09:11:43;50;42;32
33948;PMS7003;20229;49.856;19.030;2022-11-03T09:17:06;70;62;55
33948;PMS7003;20229;49.856;19.030;2022-11-03T09:22:09;58;48;40
33948;PMS7003;20229;49.856;19.030;2022-11-03T09:27:31;59;50;43
33948;PMS7003;20229;49.856;19.030;2022-11-03T09:32:34;61;57;51
33948;PMS7003;20229;49.856;19.030;2022-11-03T09:37:56;28;26;20
33948;PMS7003;20229;49.856;19.030;2022-11-03T09:43:00;26;23;18
33948;PMS7003;20229;49.856;19.030;2022-11-03T09:48:22;46;39;30
33948;PMS7003;20229;49.856;19.030;2022-11-03T09:53:26;62;51;47
33948;PMS7003;20229;49.856;19.030;2022-11-03T09:58:48;45;38;31
33948;PMS7003;20229;49.856;19.030;2022-11-03T10:03:51;56;47;40
33948;PMS7003;20229;49.856;19.030;2022-11-03T10:09:14;56;46;39
33948;PMS7003;20229;49.856;19.030;2022-11-03T10:14:22;45;38;30
33948;PMS7003;20229;49.856;19.030;2022-11-03T10:19:39;49;41;32
33948;PMS7003;20229;49.856;19.030;2022-11-03T10:24:42;50;43;34
33948;PMS7003;20229;49.856;19.030;2022-11-03T10:30:06;48;41;33
33948;PMS7003;20229;49.856;19.030;2022-11-03T10:40:34;24;22;17
33948;PMS7003;20229;49.856;19.030;2022-11-03T10:45:39;16;15;11
33948;PMS7003;20229;49.856;19.030;2022-11-03T10:50:56;17;13;10
33948;PMS7003;20229;49.856;19.030;2022-11-03T10:55:59;11;9;7
33948;PMS7003;20229;49.856;19.030;2022-11-03T11:01:21;10;10;8
33948;PMS7003;20229;49.856;19.030;2022-11-03T11:06:25;10;9;7
33948;PMS7003;20229;49.856;19.030;2022-11-03T11:17:02;14;14;12
33948;PMS7003;20229;49.856;19.030;2022-11-03T11:22:12;15;14;12
33948;PMS7003;20229;49.856;19.030;2022-11-03T11:37:54;19;18;15
33948;PMS7003;20229;49.856;19.030;2022-11-03T11:48:17;13;13;11
33948;PMS7003;20229;49.856;19.030;2022-11-03T11:53:32;19;13;11
33948;PMS7003;20229;49.856;19.030;2022-11-03T11:58:41;18;17;14
33948;PMS7003;20229;49.856;19.030;2022-11-03T12:14:24;39;34;28
33948;PMS7003;20229;49.856;19.030;2022-11-03T12:19:37;41;36;29
33948;PMS7003;20229;49.856;19.030;2022-11-03T12:24:47;42;36;29
33948;PMS7003;20229;49.856;19.030;2022-11-03T12:29:56;38;33;28
33948;PMS7003;20229;49.856;19.030;2022-11-03T12:35:11;30;28;22
33948;PMS7003;20229;49.856;19.030;2022-11-03T12:40:15;36;32;26
33948;PMS7003;20229;49.856;19.030;2022-11-03T12:45:37;51;43;36
33948;PMS7003;20229;49.856;19.030;2022-11-03T12:50:40;34;30;25
33948;PMS7003;20229;49.856;19.030;2022-11-03T12:56:02;30;28;22
33948;PMS7003;20229;49.856;19.030;2022-11-03T13:01:06;32;29;23
33948;PMS7003;20229;49.856;19.030;2022-11-03T13:06:28;36;32;26
33948;PMS7003;20229;49.856;19.030;2022-11-03T13:11:31;34;31;25
33948;PMS7003;20229;49.856;19.030;2022-11-03T13:16:53;31;28;22
33948;PMS7003;20229;49.856;19.030;2022-11-03T13:21:56;33;29;23
33948;PMS7003;20229;49.856;19.030;2022-11-03T13:27:19;35;31;25
33948;PMS7003;20229;49.856;19.030;2022-11-03T13:32:22;33;29;23
33948;PMS7003;20229;49.856;19.030;2022-11-03T13:37:44;35;31;25
33948;PMS7003;20229;49.856;19.030;2022-11-03T13:42:47;46;40;32
33948;PMS7003;20229;49.856;19.030;2022-11-03T13:48:10;37;33;27
33948;PMS7003;20229;49.856;19.030;2022-11-03T13:53:14;37;33;26
33948;PMS7003;20229;49.856;19.030;2022-11-03T13:58:35;39;33;27
33948;PMS7003;20229;49.856;19.030;2022-11-03T14:03:39;43;38;31
33948;PMS7003;20229;49.856;19.030;2022-11-03T14:09:01;34;30;24
33948;PMS7003;20229;49.856;19.030;2022-11-03T14:14:05;26;24;19
33948;PMS7003;20229;49.856;19.030;2022-11-03T14:19:27;15;13;9
33948;PMS7003;20229;49.856;19.030;2022-11-03T14:24:30;12;9;6
33948;PMS7003;20229;49.856;19.030;2022-11-03T14:29:52;13;13;9
33948;PMS7003;20229;49.856;19.030;2022-11-03T14:34:55;13;10;7
33948;PMS7003;20229;49.856;19.030;2022-11-03T14:40:17;14;10;5
33948;PMS7003;20229;49.856;19.030;2022-11-03T14:45:33;9;7;4
33948;PMS7003;20229;49.856;19.030;2022-11-03T14:50:43;16;12;7
33948;PMS7003;20229;49.856;19.030;2022-11-03T14:55:46;17;14;12
33948;PMS7003;20229;49.856;19.030;2022-11-03T15:01:08;25;20;16
33948;PMS7003;20229;49.856;19.030;2022-11-03T15:06:12;40;34;27
33948;PMS7003;20229;49.856;19.030;2022-11-03T15:11:34;52;44;36
33948;PMS7003;20229;49.856;19.030;2022-11-03T15:16:37;46;42;38
33948;PMS7003;20229;49.856;19.030;2022-11-03T15:21:59;357;356;354
33948;PMS7003;20229;49.856;19.030;2022-11-03T15:27:03;145;143;139
33948;PMS7003;20229;49.856;19.030;2022-11-03T15:32:25;38;33;26
33948;PMS7003;20229;49.856;19.030;2022-11-03T15:37:29;32;28;21
33948;PMS7003;20229;49.856;19.030;2022-11-03T15:42:51;30;27;21
33948;PMS7003;20229;49.856;19.030;2022-11-03T15:47:55;35;29;23
33948;PMS7003;20229;49.856;19.030;2022-11-03T15:53:16;42;32;26
33948;PMS7003;20229;49.856;19.030;2022-11-03T15:58:20;39;34;26
33948;PMS7003;20229;49.856;19.030;2022-11-03T16:03:42;29;26;20
33948;PMS7003;20229;49.856;19.030;2022-11-03T16:08:45;30;26;19
33948;PMS7003;20229;49.856;19.030;2022-11-03T16:14:07;29;25;19
33948;PMS7003;20229;49.856;19.030;2022-11-03T16:19:11;25;22;17
33948;PMS7003;20229;49.856;19.030;2022-11-03T16:24:33;33;27;20
33948;PMS7003;20229;49.856;19.030;2022-11-03T16:29:37;37;30;23
33948;PMS7003;20229;49.856;19.030;2022-11-03T16:34:59;37;29;23
33948;PMS7003;20229;49.856;19.030;2022-11-03T16:40:03;48;39;28
33948;PMS7003;20229;49.856;19.030;2022-11-03T16:45:24;54;41;30
33948;PMS7003;20229;49.856;19.030;2022-11-03T16:50:31;50;38;28
33948;PMS7003;20229;49.856;19.030;2022-11-03T16:55:50;55;45;33
33948;PMS7003;20229;49.856;19.030;2022-11-03T17:00:54;63;45;33
33948;PMS7003;20229;49.856;19.030;2022-11-03T17:06:16;49;37;26
33948;PMS7003;20229;49.856;19.030;2022-11-03T17:11:20;53;42;30
33948;PMS7003;20229;49.856;19.030;2022-11-03T17:16:42;52;41;29
33948;PMS7003;20229;49.856;19.030;2022-11-03T17:21:50;55;40;28
33948;PMS7003;20229;49.856;19.030;2022-11-03T17:27:12;54;42;30
33948;PMS7003;20229;49.856;19.030;2022-11-03T17:32:21;59;45;32
33948;PMS7003;20229;49.856;19.030;2022-11-03T17:37:34;60;46;32
33948;PMS7003;20229;49.856;19.030;2022-11-03T17:42:37;59;45;31
33948;PMS7003;20229;49.856;19.030;2022-11-03T17:47:59;62;47;34
33948;PMS7003;20229;49.856;19.030;2022-11-03T17:53:03;62;47;33
33948;PMS7003;20229;49.856;19.030;2022-11-03T17:58:27;68;51;37
33948;PMS7003;20229;49.856;19.030;2022-11-03T18:03:33;63;49;35
33948;PMS7003;20229;49.856;19.030;2022-11-03T18:08:51;71;55;40
33948;PMS7003;20229;49.856;19.030;2022-11-03T18:13:54;74;63;49
33948;PMS7003;20229;49.856;19.030;2022-11-03T18:19:17;67;52;38
33948;PMS7003;20229;49.856;19.030;2022-11-03T18:24:21;62;49;35
33948;PMS7003;20229;49.856;19.030;2022-11-03T18:29:43;66;51;36
33948;PMS7003;20229;49.856;19.030;2022-11-03T18:34:46;75;62;47
33948;PMS7003;20229;49.856;19.030;2022-11-03T18:40:10;67;52;37
33948;PMS7003;20229;49.856;19.030;2022-11-03T18:45:16;68;53;37
33948;PMS7003;20229;49.856;19.030;2022-11-03T18:50:35;74;61;43
33948;PMS7003;20229;49.856;19.030;2022-11-03T18:55:38;63;50;35
33948;PMS7003;20229;49.856;19.030;2022-11-03T19:01:01;68;50;36
33948;PMS7003;20229;49.856;19.030;2022-11-03T19:06:04;73;57;41
33948;PMS7003;20229;49.856;19.030;2022-11-03T19:11:27;51;41;30
33948;PMS7003;20229;49.856;19.030;2022-11-03T19:16:30;48;38;28
33948;PMS7003;20229;49.856;19.030;2022-11-03T19:21:52;46;37;29
33948;PMS7003;20229;49.856;19.030;2022-11-03T19:26:57;43;34;26
33948;PMS7003;20229;49.856;19.030;2022-11-03T19:32:21;61;49;42
33948;PMS7003;20229;49.856;19.030;2022-11-03T19:37:31;43;36;29
33948;PMS7003;20229;49.856;19.030;2022-11-03T19:42:44;41;33;26
33948;PMS7003;20229;49.856;19.030;2022-11-03T19:47:52;38;32;26
33948;PMS7003;20229;49.856;19.030;2022-11-03T19:53:11;48;46;42
33948;PMS7003;20229;49.856;19.030;2022-11-03T19:58:19;74;70;66
33948;PMS7003;20229;49.856;19.030;2022-11-03T20:03:37;180;178;175
33948;PMS7003;20229;49.856;19.030;2022-11-03T20:08:41;138;137;133
33948;PMS7003;20229;49.856;19.030;2022-11-03T20:14:03;94;88;82
33948;PMS7003;20229;49.856;19.030;2022-11-03T20:19:07;95;85;78
33948;PMS7003;20229;49.856;19.030;2022-11-03T20:24:28;99;91;83
33948;PMS7003;20229;49.856;19.030;2022-11-03T20:29:33;38;35;29
33948;PMS7003;20229;49.856;19.030;2022-11-03T20:34:54;32;29;23
33948;PMS7003;20229;49.856;19.030;2022-11-03T20:39:58;51;45;38
33948;PMS7003;20229;49.856;19.030;2022-11-03T20:45:21;33;28;23
33948;PMS7003;20229;49.856;19.030;2022-11-03T20:50:25;27;24;20
33948;PMS7003;20229;49.856;19.030;2022-11-03T20:55:46;16;13;8
33948;PMS7003;20229;49.856;19.030;2022-11-03T21:00:50;22;19;11
33948;PMS7003;20229;49.856;19.030;2022-11-03T21:06:13;15;13;9
33948;PMS7003;20229;49.856;19.030;2022-11-03T21:11:19;17;15;10
33948;PMS7003;20229;49.856;19.030;2022-11-03T21:16:37;10;9;2
33948;PMS7003;20229;49.856;19.030;2022-11-03T21:21:53;8;6;3
33948;PMS7003;20229;49.856;19.030;2022-11-03T21:27:03;6;5;1
33948;PMS7003;20229;49.856;19.030;2022-11-03T21:32:08;8;6;3
33948;PMS7003;20229;49.856;19.030;2022-11-03T21:37:28;4;3;0
33948;PMS7003;20229;49.856;19.030;2022-11-03T21:42:32;6;5;2
33948;PMS7003;20229;49.856;19.030;2022-11-03T21:47:53;29;28;22
33948;PMS7003;20229;49.856;19.030;2022-11-03T21:53:09;40;39;34
33948;PMS7003;20229;49.856;19.030;2022-11-03T21:58:19;51;49;47
33948;PMS7003;20229;49.856;19.030;2022-11-03T22:03:22;55;53;51
33948;PMS7003;20229;49.856;19.030;2022-11-03T22:08:45;57;57;55
33948;PMS7003;20229;49.856;19.030;2022-11-03T22:13:54;72;69;68
33948;PMS7003;20229;49.856;19.030;2022-11-03T22:19:16;119;116;112
33948;PMS7003;20229;49.856;19.030;2022-11-03T22:24:33;125;121;118
33948;PMS7003;20229;49.856;19.030;2022-11-03T22:29:50;132;129;127
33948;PMS7003;20229;49.856;19.030;2022-11-03T22:35:07;135;134;130
33948;PMS7003;20229;49.856;19.030;2022-11-03T22:40:23;132;127;123
33948;PMS7003;20229;49.856;19.030;2022-11-03T22:45:39;128;127;123
33948;PMS7003;20229;49.856;19.030;2022-11-03T22:56:09;163;161;160
33948;PMS7003;20229;49.856;19.030;2022-11-03T23:01:13;183;179;178
33948;PMS7003;20229;49.856;19.030;2022-11-03T23:06:20;163;161;160
33948;PMS7003;20229;49.856;19.030;2022-11-03T23:11:26;141;139;138
33948;PMS7003;20229;49.856;19.030;2022-11-03T23:16:35;133;132;131
33948;PMS7003;20229;49.856;19.030;2022-11-03T23:21:50;103;97;95
33948;PMS7003;20229;49.856;19.030;2022-11-03T23:26:54;90;85;84
33948;PMS7003;20229;49.856;19.030;2022-11-03T23:32:16;86;81;78
33948;PMS7003;20229;49.856;19.030;2022-11-03T23:37:19;92;87;84
33948;PMS7003;20229;49.856;19.030;2022-11-03T23:42:43;132;130;129
33948;PMS7003;20229;49.856;19.030;2022-11-03T23:47:47;162;159;157
33948;PMS7003;20229;49.856;19.030;2022-11-03T23:53:09;142;141;140
33948;PMS7003;20229;49.856;19.030;2022-11-03T23:58:12;156;154;151
